sensor_id;sensor_type;location;lat;lon;timestamp;P1;durP1;ratioP1;P2;durP2;ratioP2
16093;SDS011;8151;47.824;12.092;2024-02-04T00:00:10;5.23;;;3.80;;
16093;SDS011;8151;47.824;12.092;2024-02-04T00:02:40;4.43;;;3.50;;
16093;SDS011;8151;47.824;12.092;2024-02-04T00:05:08;5.43;;;4.07;;
16093;SDS011;8151;47.824;12.092;2024-02-04T00:07:38;4.17;;;3.37;;
16093;SDS011;8151;47.824;12.092;2024-02-04T00:10:07;4.67;;;3.67;;
16093;SDS011;8151;47.824;12.092;2024-02-04T00:12:36;6.40;;;4.20;;
16093;SDS011;8151;47.824;12.092;2024-02-04T00:15:06;5.83;;;3.87;;
16093;SDS011;8151;47.824;12.092;2024-02-04T00:17:35;5.90;;;3.93;;
16093;SDS011;8151;47.824;12.092;2024-02-04T00:20:04;4.90;;;4.27;;
16093;SDS011;8151;47.824;12.092;2024-02-04T00:22:34;4.97;;;3.70;;
16093;SDS011;8151;47.824;12.092;2024-02-04T00:25:04;4.17;;;3.70;;
16093;SDS011;8151;47.824;12.092;2024-02-04T00:27:33;5.47;;;4.07;;
16093;SDS011;8151;47.824;12.092;2024-02-04T00:30:02;4.07;;;3.33;;
16093;SDS011;8151;47.824;12.092;2024-02-04T00:32:31;6.13;;;3.97;;
16093;SDS011;8151;47.824;12.092;2024-02-04T00:35:00;5.43;;;3.93;;
16093;SDS011;8151;47.824;12.092;2024-02-04T00:37:30;8.20;;;3.83;;
16093;SDS011;8151;47.824;12.092;2024-02-04T00:39:58;7.17;;;4.47;;
16093;SDS011;8151;47.824;12.092;2024-02-04T00:42:28;6.00;;;4.10;;
16093;SDS011;8151;47.824;12.092;2024-02-04T00:44:57;6.83;;;4.20;;
16093;SDS011;8151;47.824;12.092;2024-02-04T00:47:25;6.27;;;4.50;;
16093;SDS011;8151;47.824;12.092;2024-02-04T00:49:53;4.97;;;3.60;;
16093;SDS011;8151;47.824;12.092;2024-02-04T00:52:22;5.30;;;3.40;;
16093;SDS011;8151;47.824;12.092;2024-02-04T00:54:50;5.53;;;3.20;;
16093;SDS011;8151;47.824;12.092;2024-02-04T00:57:19;6.47;;;3.20;;
16093;SDS011;8151;47.824;12.092;2024-02-04T00:59:49;5.20;;;3.60;;
16093;SDS011;8151;47.824;12.092;2024-02-04T01:02:18;6.20;;;3.00;;
16093;SDS011;8151;47.824;12.092;2024-02-04T01:04:46;6.23;;;3.43;;
16093;SDS011;8151;47.824;12.092;2024-02-04T01:07:15;4.57;;;3.33;;
16093;SDS011;8151;47.824;12.092;2024-02-04T01:09:44;4.87;;;3.80;;
16093;SDS011;8151;47.824;12.092;2024-02-04T01:12:12;5.50;;;3.77;;
16093;SDS011;8151;47.824;12.092;2024-02-04T01:14:41;4.83;;;4.00;;
16093;SDS011;8151;47.824;12.092;2024-02-04T01:17:11;6.07;;;4.30;;
16093;SDS011;8151;47.824;12.092;2024-02-04T01:19:39;6.80;;;4.20;;
16093;SDS011;8151;47.824;12.092;2024-02-04T01:22:08;5.43;;;3.97;;
16093;SDS011;8151;47.824;12.092;2024-02-04T01:24:36;4.13;;;3.73;;
16093;SDS011;8151;47.824;12.092;2024-02-04T01:27:05;5.23;;;3.97;;
16093;SDS011;8151;47.824;12.092;2024-02-04T01:29:34;5.17;;;4.07;;
16093;SDS011;8151;47.824;12.092;2024-02-04T01:32:03;5.27;;;3.80;;
16093;SDS011;8151;47.824;12.092;2024-02-04T01:34:33;5.00;;;4.00;;
16093;SDS011;8151;47.824;12.092;2024-02-04T01:37:02;5.27;;;3.83;;
16093;SDS011;8151;47.824;12.092;2024-02-04T01:39:31;5.20;;;3.60;;
16093;SDS011;8151;47.824;12.092;2024-02-04T01:42:00;5.77;;;3.73;;
16093;SDS011;8151;47.824;12.092;2024-02-04T01:44:29;4.57;;;3.80;;
16093;SDS011;8151;47.824;12.092;2024-02-04T01:46:57;6.57;;;3.70;;
16093;SDS011;8151;47.824;12.092;2024-02-04T01:49:25;12.53;;;3.67;;
16093;SDS011;8151;47.824;12.092;2024-02-04T01:51:55;5.53;;;4.17;;
16093;SDS011;8151;47.824;12.092;2024-02-04T01:54:25;9.63;;;4.13;;
16093;SDS011;8151;47.824;12.092;2024-02-04T01:56:54;5.03;;;3.40;;
16093;SDS011;8151;47.824;12.092;2024-02-04T01:59:24;6.30;;;4.10;;
16093;SDS011;8151;47.824;12.092;2024-02-04T02:01:55;4.20;;;3.63;;
16093;SDS011;8151;47.824;12.092;2024-02-04T02:04:24;3.90;;;3.43;;
16093;SDS011;8151;47.824;12.092;2024-02-04T02:06:53;5.33;;;3.93;;
16093;SDS011;8151;47.824;12.092;2024-02-04T02:09:23;5.70;;;3.60;;
16093;SDS011;8151;47.824;12.092;2024-02-04T02:11:54;5.53;;;4.30;;
16093;SDS011;8151;47.824;12.092;2024-02-04T02:14:26;5.43;;;3.70;;
16093;SDS011;8151;47.824;12.092;2024-02-04T02:17:00;4.47;;;3.77;;
16093;SDS011;8151;47.824;12.092;2024-02-04T02:19:38;4.93;;;4.13;;
16093;SDS011;8151;47.824;12.092;2024-02-04T02:22:15;11.00;;;4.77;;
16093;SDS011;8151;47.824;12.092;2024-02-04T02:24:53;6.07;;;4.03;;
16093;SDS011;8151;47.824;12.092;2024-02-04T02:27:24;4.57;;;3.77;;
16093;SDS011;8151;47.824;12.092;2024-02-04T02:29:53;5.60;;;4.30;;
16093;SDS011;8151;47.824;12.092;2024-02-04T02:32:21;6.13;;;4.20;;
16093;SDS011;8151;47.824;12.092;2024-02-04T02:34:50;4.17;;;3.77;;
16093;SDS011;8151;47.824;12.092;2024-02-04T02:37:22;5.23;;;3.83;;
16093;SDS011;8151;47.824;12.092;2024-02-04T02:40:00;4.37;;;3.83;;
16093;SDS011;8151;47.824;12.092;2024-02-04T02:42:31;5.73;;;4.20;;
16093;SDS011;8151;47.824;12.092;2024-02-04T02:45:01;5.03;;;3.77;;
16093;SDS011;8151;47.824;12.092;2024-02-04T02:47:29;5.50;;;3.87;;
16093;SDS011;8151;47.824;12.092;2024-02-04T02:50:00;4.40;;;3.30;;
16093;SDS011;8151;47.824;12.092;2024-02-04T02:52:28;5.00;;;3.93;;
16093;SDS011;8151;47.824;12.092;2024-02-04T02:54:57;5.03;;;3.67;;
16093;SDS011;8151;47.824;12.092;2024-02-04T02:57:27;5.93;;;4.00;;
16093;SDS011;8151;47.824;12.092;2024-02-04T02:59:55;7.60;;;3.60;;
16093;SDS011;8151;47.824;12.092;2024-02-04T03:02:24;5.33;;;3.57;;
16093;SDS011;8151;47.824;12.092;2024-02-04T03:04:52;4.97;;;3.80;;
16093;SDS011;8151;47.824;12.092;2024-02-04T03:07:20;6.03;;;4.07;;
16093;SDS011;8151;47.824;12.092;2024-02-04T03:09:49;4.60;;;3.90;;
16093;SDS011;8151;47.824;12.092;2024-02-04T03:12:17;5.07;;;3.83;;
16093;SDS011;8151;47.824;12.092;2024-02-04T03:14:47;5.30;;;3.60;;
16093;SDS011;8151;47.824;12.092;2024-02-04T03:17:15;4.80;;;3.33;;
16093;SDS011;8151;47.824;12.092;2024-02-04T03:19:47;6.53;;;3.93;;
16093;SDS011;8151;47.824;12.092;2024-02-04T03:22:18;4.67;;;3.70;;
16093;SDS011;8151;47.824;12.092;2024-02-04T03:24:48;6.37;;;4.10;;
16093;SDS011;8151;47.824;12.092;2024-02-04T03:27:17;5.23;;;4.00;;
16093;SDS011;8151;47.824;12.092;2024-02-04T03:29:46;6.27;;;4.50;;
16093;SDS011;8151;47.824;12.092;2024-02-04T03:32:16;7.37;;;4.50;;
16093;SDS011;8151;47.824;12.092;2024-02-04T03:34:44;5.23;;;3.83;;
16093;SDS011;8151;47.824;12.092;2024-02-04T03:37:13;5.53;;;4.30;;
16093;SDS011;8151;47.824;12.092;2024-02-04T03:39:41;4.90;;;4.03;;
16093;SDS011;8151;47.824;12.092;2024-02-04T03:42:10;5.13;;;4.27;;
16093;SDS011;8151;47.824;12.092;2024-02-04T03:44:38;6.47;;;4.00;;
16093;SDS011;8151;47.824;12.092;2024-02-04T03:47:08;6.10;;;4.50;;
16093;SDS011;8151;47.824;12.092;2024-02-04T03:49:36;6.80;;;4.50;;
16093;SDS011;8151;47.824;12.092;2024-02-04T03:52:05;5.50;;;4.17;;
16093;SDS011;8151;47.824;12.092;2024-02-04T03:54:34;5.73;;;4.40;;
16093;SDS011;8151;47.824;12.092;2024-02-04T03:57:02;5.80;;;4.23;;
16093;SDS011;8151;47.824;12.092;2024-02-04T03:59:31;9.07;;;4.00;;
16093;SDS011;8151;47.824;12.092;2024-02-04T04:01:59;4.67;;;4.00;;
16093;SDS011;8151;47.824;12.092;2024-02-04T04:04:29;5.43;;;3.80;;
16093;SDS011;8151;47.824;12.092;2024-02-04T04:06:58;5.57;;;4.20;;
16093;SDS011;8151;47.824;12.092;2024-02-04T04:09:26;5.80;;;4.33;;
16093;SDS011;8151;47.824;12.092;2024-02-04T04:11:55;5.73;;;4.30;;
16093;SDS011;8151;47.824;12.092;2024-02-04T04:14:24;5.33;;;3.67;;
16093;SDS011;8151;47.824;12.092;2024-02-04T04:16:52;6.33;;;4.53;;
16093;SDS011;8151;47.824;12.092;2024-02-04T04:19:20;5.77;;;3.90;;
16093;SDS011;8151;47.824;12.092;2024-02-04T04:21:50;4.67;;;3.77;;
16093;SDS011;8151;47.824;12.092;2024-02-04T04:24:19;3.90;;;3.50;;
16093;SDS011;8151;47.824;12.092;2024-02-04T04:26:49;4.37;;;3.70;;
16093;SDS011;8151;47.824;12.092;2024-02-04T04:29:17;5.93;;;4.27;;
16093;SDS011;8151;47.824;12.092;2024-02-04T04:31:46;3.90;;;3.50;;
16093;SDS011;8151;47.824;12.092;2024-02-04T04:34:15;4.03;;;3.37;;
16093;SDS011;8151;47.824;12.092;2024-02-04T04:36:45;5.37;;;3.77;;
16093;SDS011;8151;47.824;12.092;2024-02-04T04:39:15;4.70;;;3.80;;
16093;SDS011;8151;47.824;12.092;2024-02-04T04:41:44;4.97;;;3.90;;
16093;SDS011;8151;47.824;12.092;2024-02-04T04:44:12;5.90;;;3.77;;
16093;SDS011;8151;47.824;12.092;2024-02-04T04:46:41;4.27;;;3.30;;
16093;SDS011;8151;47.824;12.092;2024-02-04T04:49:09;5.37;;;3.57;;
16093;SDS011;8151;47.824;12.092;2024-02-04T04:51:38;3.87;;;3.43;;
16093;SDS011;8151;47.824;12.092;2024-02-04T04:54:06;5.07;;;3.63;;
16093;SDS011;8151;47.824;12.092;2024-02-04T04:56:39;3.63;;;3.23;;
16093;SDS011;8151;47.824;12.092;2024-02-04T04:59:09;3.57;;;3.13;;
16093;SDS011;8151;47.824;12.092;2024-02-04T05:01:44;4.50;;;3.30;;
16093;SDS011;8151;47.824;12.092;2024-02-04T05:04:13;5.27;;;3.27;;
16093;SDS011;8151;47.824;12.092;2024-02-04T05:06:43;3.57;;;3.13;;
16093;SDS011;8151;47.824;12.092;2024-02-04T05:09:11;4.80;;;2.97;;
16093;SDS011;8151;47.824;12.092;2024-02-04T05:11:41;6.70;;;3.20;;
16093;SDS011;8151;47.824;12.092;2024-02-04T05:14:10;4.67;;;2.93;;
16093;SDS011;8151;47.824;12.092;2024-02-04T05:16:38;3.83;;;3.20;;
16093;SDS011;8151;47.824;12.092;2024-02-04T05:19:06;4.83;;;3.00;;
16093;SDS011;8151;47.824;12.092;2024-02-04T05:21:37;3.90;;;2.90;;
16093;SDS011;8151;47.824;12.092;2024-02-04T05:24:07;3.80;;;3.40;;
16093;SDS011;8151;47.824;12.092;2024-02-04T05:26:35;4.40;;;3.10;;
16093;SDS011;8151;47.824;12.092;2024-02-04T05:29:05;5.40;;;3.30;;
16093;SDS011;8151;47.824;12.092;2024-02-04T05:31:34;4.30;;;3.23;;
16093;SDS011;8151;47.824;12.092;2024-02-04T05:34:08;4.63;;;3.27;;
16093;SDS011;8151;47.824;12.092;2024-02-04T05:36:37;3.17;;;2.87;;
16093;SDS011;8151;47.824;12.092;2024-02-04T05:39:09;4.37;;;3.40;;
16093;SDS011;8151;47.824;12.092;2024-02-04T05:41:38;4.00;;;3.33;;
16093;SDS011;8151;47.824;12.092;2024-02-04T05:44:08;5.90;;;3.17;;
16093;SDS011;8151;47.824;12.092;2024-02-04T05:46:37;4.60;;;3.10;;
16093;SDS011;8151;47.824;12.092;2024-02-04T05:49:06;4.97;;;3.27;;
16093;SDS011;8151;47.824;12.092;2024-02-04T05:51:37;4.10;;;3.27;;
16093;SDS011;8151;47.824;12.092;2024-02-04T05:54:06;4.33;;;3.13;;
16093;SDS011;8151;47.824;12.092;2024-02-04T05:56:35;3.93;;;3.20;;
16093;SDS011;8151;47.824;12.092;2024-02-04T05:59:03;3.43;;;3.10;;
16093;SDS011;8151;47.824;12.092;2024-02-04T06:01:33;5.73;;;2.93;;
16093;SDS011;8151;47.824;12.092;2024-02-04T06:04:02;5.53;;;3.10;;
16093;SDS011;8151;47.824;12.092;2024-02-04T06:06:30;4.90;;;3.37;;
16093;SDS011;8151;47.824;12.092;2024-02-04T06:08:59;4.70;;;2.80;;
16093;SDS011;8151;47.824;12.092;2024-02-04T06:11:28;3.77;;;3.47;;
16093;SDS011;8151;47.824;12.092;2024-02-04T06:13:56;5.50;;;3.30;;
16093;SDS011;8151;47.824;12.092;2024-02-04T06:16:25;5.67;;;3.07;;
16093;SDS011;8151;47.824;12.092;2024-02-04T06:18:55;3.93;;;2.90;;
16093;SDS011;8151;47.824;12.092;2024-02-04T06:21:25;4.77;;;3.20;;
16093;SDS011;8151;47.824;12.092;2024-02-04T06:23:53;4.40;;;2.80;;
16093;SDS011;8151;47.824;12.092;2024-02-04T06:26:22;4.67;;;3.17;;
16093;SDS011;8151;47.824;12.092;2024-02-04T06:28:50;4.17;;;3.47;;
16093;SDS011;8151;47.824;12.092;2024-02-04T06:31:19;6.70;;;3.03;;
16093;SDS011;8151;47.824;12.092;2024-02-04T06:33:47;5.57;;;3.30;;
16093;SDS011;8151;47.824;12.092;2024-02-04T06:36:17;8.97;;;3.30;;
16093;SDS011;8151;47.824;12.092;2024-02-04T06:38:46;4.40;;;3.50;;
16093;SDS011;8151;47.824;12.092;2024-02-04T06:41:14;4.60;;;3.47;;
16093;SDS011;8151;47.824;12.092;2024-02-04T06:43:43;4.83;;;3.63;;
16093;SDS011;8151;47.824;12.092;2024-02-04T06:46:10;6.43;;;3.23;;
16093;SDS011;8151;47.824;12.092;2024-02-04T06:48:39;3.90;;;3.30;;
16093;SDS011;8151;47.824;12.092;2024-02-04T06:51:08;4.63;;;3.63;;
16093;SDS011;8151;47.824;12.092;2024-02-04T06:53:37;4.33;;;3.47;;
16093;SDS011;8151;47.824;12.092;2024-02-04T06:56:06;4.77;;;3.50;;
16093;SDS011;8151;47.824;12.092;2024-02-04T06:58:36;3.83;;;3.30;;
16093;SDS011;8151;47.824;12.092;2024-02-04T07:01:05;5.63;;;4.17;;
16093;SDS011;8151;47.824;12.092;2024-02-04T07:03:33;4.80;;;3.70;;
16093;SDS011;8151;47.824;12.092;2024-02-04T07:06:02;7.53;;;6.00;;
16093;SDS011;8151;47.824;12.092;2024-02-04T07:08:31;9.70;;;7.00;;
16093;SDS011;8151;47.824;12.092;2024-02-04T07:11:01;12.67;;;7.60;;
16093;SDS011;8151;47.824;12.092;2024-02-04T07:13:30;7.00;;;5.67;;
16093;SDS011;8151;47.824;12.092;2024-02-04T07:15:58;6.87;;;4.63;;
16093;SDS011;8151;47.824;12.092;2024-02-04T07:18:27;13.90;;;5.07;;
16093;SDS011;8151;47.824;12.092;2024-02-04T07:20:56;18.93;;;5.77;;
16093;SDS011;8151;47.824;12.092;2024-02-04T07:23:24;9.33;;;7.20;;
16093;SDS011;8151;47.824;12.092;2024-02-04T07:25:53;16.60;;;11.43;;
16093;SDS011;8151;47.824;12.092;2024-02-04T07:28:23;10.73;;;6.97;;
16093;SDS011;8151;47.824;12.092;2024-02-04T07:30:51;14.67;;;9.90;;
16093;SDS011;8151;47.824;12.092;2024-02-04T07:33:19;20.37;;;13.70;;
16093;SDS011;8151;47.824;12.092;2024-02-04T07:35:48;28.83;;;16.13;;
16093;SDS011;8151;47.824;12.092;2024-02-04T07:38:17;32.13;;;19.43;;
16093;SDS011;8151;47.824;12.092;2024-02-04T07:40:45;22.77;;;12.67;;
16093;SDS011;8151;47.824;12.092;2024-02-04T07:43:14;12.37;;;8.50;;
16093;SDS011;8151;47.824;12.092;2024-02-04T07:45:43;20.57;;;13.00;;
16093;SDS011;8151;47.824;12.092;2024-02-04T07:48:12;21.23;;;12.87;;
16093;SDS011;8151;47.824;12.092;2024-02-04T07:50:40;8.00;;;6.73;;
16093;SDS011;8151;47.824;12.092;2024-02-04T07:53:08;11.87;;;5.57;;
16093;SDS011;8151;47.824;12.092;2024-02-04T07:55:37;3.97;;;3.40;;
16093;SDS011;8151;47.824;12.092;2024-02-04T07:58:05;4.93;;;3.50;;
16093;SDS011;8151;47.824;12.092;2024-02-04T08:00:34;9.93;;;3.80;;
16093;SDS011;8151;47.824;12.092;2024-02-04T08:03:04;10.90;;;4.03;;
16093;SDS011;8151;47.824;12.092;2024-02-04T08:05:32;5.90;;;3.60;;
16093;SDS011;8151;47.824;12.092;2024-02-04T08:08:02;7.00;;;3.63;;
16093;SDS011;8151;47.824;12.092;2024-02-04T08:10:31;5.13;;;3.57;;
16093;SDS011;8151;47.824;12.092;2024-02-04T08:13:00;4.43;;;3.70;;
16093;SDS011;8151;47.824;12.092;2024-02-04T08:15:28;8.60;;;3.47;;
16093;SDS011;8151;47.824;12.092;2024-02-04T08:17:57;9.73;;;3.70;;
16093;SDS011;8151;47.824;12.092;2024-02-04T08:20:26;4.93;;;3.40;;
16093;SDS011;8151;47.824;12.092;2024-02-04T08:22:55;3.90;;;3.30;;
16093;SDS011;8151;47.824;12.092;2024-02-04T08:25:23;5.43;;;3.30;;
16093;SDS011;8151;47.824;12.092;2024-02-04T08:27:52;10.80;;;3.97;;
16093;SDS011;8151;47.824;12.092;2024-02-04T08:30:25;9.20;;;3.43;;
16093;SDS011;8151;47.824;12.092;2024-02-04T08:32:53;7.50;;;3.30;;
16093;SDS011;8151;47.824;12.092;2024-02-04T08:35:22;5.07;;;3.20;;
16093;SDS011;8151;47.824;12.092;2024-02-04T08:37:51;10.63;;;3.80;;
16093;SDS011;8151;47.824;12.092;2024-02-04T08:40:20;6.60;;;3.20;;
16093;SDS011;8151;47.824;12.092;2024-02-04T08:42:48;12.97;;;3.20;;
16093;SDS011;8151;47.824;12.092;2024-02-04T08:45:17;6.03;;;3.10;;
16093;SDS011;8151;47.824;12.092;2024-02-04T08:47:45;4.90;;;3.20;;
16093;SDS011;8151;47.824;12.092;2024-02-04T08:50:14;3.87;;;3.40;;
16093;SDS011;8151;47.824;12.092;2024-02-04T08:52:42;4.07;;;3.07;;
16093;SDS011;8151;47.824;12.092;2024-02-04T08:55:12;6.53;;;3.50;;
16093;SDS011;8151;47.824;12.092;2024-02-04T08:57:41;5.83;;;4.63;;
16093;SDS011;8151;47.824;12.092;2024-02-04T09:00:10;6.67;;;4.27;;
16093;SDS011;8151;47.824;12.092;2024-02-04T09:02:39;5.37;;;3.63;;
16093;SDS011;8151;47.824;12.092;2024-02-04T09:05:08;7.47;;;4.10;;
16093;SDS011;8151;47.824;12.092;2024-02-04T09:07:36;5.67;;;3.23;;
16093;SDS011;8151;47.824;12.092;2024-02-04T09:10:06;24.70;;;14.17;;
16093;SDS011;8151;47.824;12.092;2024-02-04T09:12:36;8.27;;;4.60;;
16093;SDS011;8151;47.824;12.092;2024-02-04T09:15:05;4.67;;;3.33;;
16093;SDS011;8151;47.824;12.092;2024-02-04T09:17:35;4.73;;;3.57;;
16093;SDS011;8151;47.824;12.092;2024-02-04T09:20:04;8.40;;;2.90;;
16093;SDS011;8151;47.824;12.092;2024-02-04T09:22:35;4.23;;;3.00;;
16093;SDS011;8151;47.824;12.092;2024-02-04T09:25:04;10.60;;;3.60;;
16093;SDS011;8151;47.824;12.092;2024-02-04T09:27:33;9.63;;;5.43;;
16093;SDS011;8151;47.824;12.092;2024-02-04T09:30:03;4.90;;;4.20;;
16093;SDS011;8151;47.824;12.092;2024-02-04T09:32:33;9.80;;;6.30;;
16093;SDS011;8151;47.824;12.092;2024-02-04T09:35:02;9.33;;;5.30;;
16093;SDS011;8151;47.824;12.092;2024-02-04T09:37:31;7.83;;;5.47;;
16093;SDS011;8151;47.824;12.092;2024-02-04T09:40:00;6.53;;;3.90;;
16093;SDS011;8151;47.824;12.092;2024-02-04T09:42:29;3.77;;;3.17;;
16093;SDS011;8151;47.824;12.092;2024-02-04T09:44:58;6.77;;;3.63;;
16093;SDS011;8151;47.824;12.092;2024-02-04T09:47:29;8.17;;;3.60;;
16093;SDS011;8151;47.824;12.092;2024-02-04T09:49:59;4.37;;;3.47;;
16093;SDS011;8151;47.824;12.092;2024-02-04T09:52:28;4.90;;;2.97;;
16093;SDS011;8151;47.824;12.092;2024-02-04T09:54:59;4.17;;;3.40;;
16093;SDS011;8151;47.824;12.092;2024-02-04T09:57:30;7.40;;;3.60;;
16093;SDS011;8151;47.824;12.092;2024-02-04T10:00:01;4.43;;;3.00;;
16093;SDS011;8151;47.824;12.092;2024-02-04T10:02:33;7.60;;;3.13;;
16093;SDS011;8151;47.824;12.092;2024-02-04T10:05:02;5.23;;;3.67;;
16093;SDS011;8151;47.824;12.092;2024-02-04T10:07:31;6.03;;;3.80;;
16093;SDS011;8151;47.824;12.092;2024-02-04T10:09:59;4.67;;;3.43;;
16093;SDS011;8151;47.824;12.092;2024-02-04T10:12:28;15.90;;;9.87;;
16093;SDS011;8151;47.824;12.092;2024-02-04T10:14:58;9.83;;;6.77;;
16093;SDS011;8151;47.824;12.092;2024-02-04T10:17:27;5.67;;;3.60;;
16093;SDS011;8151;47.824;12.092;2024-02-04T10:19:57;7.83;;;4.17;;
16093;SDS011;8151;47.824;12.092;2024-02-04T10:22:26;5.67;;;3.27;;
16093;SDS011;8151;47.824;12.092;2024-02-04T10:25:04;7.30;;;3.27;;
16093;SDS011;8151;47.824;12.092;2024-02-04T10:27:34;5.20;;;3.40;;
16093;SDS011;8151;47.824;12.092;2024-02-04T10:30:04;9.67;;;3.37;;
16093;SDS011;8151;47.824;12.092;2024-02-04T10:32:33;7.00;;;3.17;;
16093;SDS011;8151;47.824;12.092;2024-02-04T10:35:04;7.30;;;3.23;;
16093;SDS011;8151;47.824;12.092;2024-02-04T10:37:33;6.67;;;3.50;;
16093;SDS011;8151;47.824;12.092;2024-02-04T10:40:01;7.07;;;3.70;;
16093;SDS011;8151;47.824;12.092;2024-02-04T10:42:31;7.83;;;3.10;;
16093;SDS011;8151;47.824;12.092;2024-02-04T10:44:59;6.13;;;3.50;;
16093;SDS011;8151;47.824;12.092;2024-02-04T10:47:30;7.80;;;3.30;;
16093;SDS011;8151;47.824;12.092;2024-02-04T10:50:01;3.80;;;3.00;;
16093;SDS011;8151;47.824;12.092;2024-02-04T10:52:34;9.27;;;3.17;;
16093;SDS011;8151;47.824;12.092;2024-02-04T10:55:06;5.67;;;3.43;;
16093;SDS011;8151;47.824;12.092;2024-02-04T10:57:37;4.63;;;2.70;;
16093;SDS011;8151;47.824;12.092;2024-02-04T11:00:06;5.83;;;3.40;;
16093;SDS011;8151;47.824;12.092;2024-02-04T11:02:39;5.57;;;3.07;;
16093;SDS011;8151;47.824;12.092;2024-02-04T11:05:14;5.90;;;3.50;;
16093;SDS011;8151;47.824;12.092;2024-02-04T11:07:44;16.40;;;5.97;;
16093;SDS011;8151;47.824;12.092;2024-02-04T11:10:13;6.50;;;3.67;;
16093;SDS011;8151;47.824;12.092;2024-02-04T11:12:43;9.13;;;5.63;;
16093;SDS011;8151;47.824;12.092;2024-02-04T11:15:14;12.20;;;4.07;;
16093;SDS011;8151;47.824;12.092;2024-02-04T11:21:02;32.87;;;18.10;;
16093;SDS011;8151;47.824;12.092;2024-02-04T11:23:42;9.07;;;3.67;;
16093;SDS011;8151;47.824;12.092;2024-02-04T11:26:19;8.67;;;3.30;;
16093;SDS011;8151;47.824;12.092;2024-02-04T11:28:49;7.37;;;3.70;;
16093;SDS011;8151;47.824;12.092;2024-02-04T11:31:17;7.23;;;3.40;;
16093;SDS011;8151;47.824;12.092;2024-02-04T11:33:46;5.60;;;2.60;;
16093;SDS011;8151;47.824;12.092;2024-02-04T11:36:24;5.93;;;3.00;;
16093;SDS011;8151;47.824;12.092;2024-02-04T11:38:53;4.43;;;2.43;;
16093;SDS011;8151;47.824;12.092;2024-02-04T11:41:22;13.83;;;2.97;;
16093;SDS011;8151;47.824;12.092;2024-02-04T11:43:52;8.47;;;2.90;;
16093;SDS011;8151;47.824;12.092;2024-02-04T11:46:27;5.50;;;2.60;;
16093;SDS011;8151;47.824;12.092;2024-02-04T11:49:00;6.70;;;2.80;;
16093;SDS011;8151;47.824;12.092;2024-02-04T11:51:31;13.27;;;4.93;;
16093;SDS011;8151;47.824;12.092;2024-02-04T11:53:59;10.37;;;5.03;;
16093;SDS011;8151;47.824;12.092;2024-02-04T11:56:32;7.00;;;3.07;;
16093;SDS011;8151;47.824;12.092;2024-02-04T11:59:02;8.77;;;3.30;;
16093;SDS011;8151;47.824;12.092;2024-02-04T12:01:31;10.33;;;3.30;;
16093;SDS011;8151;47.824;12.092;2024-02-04T12:04:08;5.80;;;3.70;;
16093;SDS011;8151;47.824;12.092;2024-02-04T12:06:39;7.73;;;3.30;;
16093;SDS011;8151;47.824;12.092;2024-02-04T12:09:09;6.83;;;3.23;;
16093;SDS011;8151;47.824;12.092;2024-02-04T12:11:37;10.17;;;3.67;;
16093;SDS011;8151;47.824;12.092;2024-02-04T12:14:07;15.43;;;8.33;;
16093;SDS011;8151;47.824;12.092;2024-02-04T12:16:35;31.60;;;18.60;;
16093;SDS011;8151;47.824;12.092;2024-02-04T12:19:04;3.90;;;2.50;;
16093;SDS011;8151;47.824;12.092;2024-02-04T12:21:33;4.50;;;2.00;;
16093;SDS011;8151;47.824;12.092;2024-02-04T12:24:05;1.93;;;1.17;;
16093;SDS011;8151;47.824;12.092;2024-02-04T12:26:34;3.07;;;1.40;;
16093;SDS011;8151;47.824;12.092;2024-02-04T12:29:03;5.20;;;1.23;;
16093;SDS011;8151;47.824;12.092;2024-02-04T12:31:32;3.73;;;1.70;;
16093;SDS011;8151;47.824;12.092;2024-02-04T12:34:00;5.53;;;1.43;;
16093;SDS011;8151;47.824;12.092;2024-02-04T12:36:30;4.27;;;1.37;;
16093;SDS011;8151;47.824;12.092;2024-02-04T12:39:00;7.40;;;1.33;;
16093;SDS011;8151;47.824;12.092;2024-02-04T12:41:31;4.80;;;1.67;;
16093;SDS011;8151;47.824;12.092;2024-02-04T12:44:01;6.50;;;1.70;;
16093;SDS011;8151;47.824;12.092;2024-02-04T12:46:32;3.93;;;1.30;;
16093;SDS011;8151;47.824;12.092;2024-02-04T12:49:00;3.23;;;1.20;;
16093;SDS011;8151;47.824;12.092;2024-02-04T12:51:33;5.37;;;1.20;;
16093;SDS011;8151;47.824;12.092;2024-02-04T12:54:03;6.70;;;2.00;;
16093;SDS011;8151;47.824;12.092;2024-02-04T12:56:44;7.47;;;4.10;;
16093;SDS011;8151;47.824;12.092;2024-02-04T12:59:23;18.70;;;10.33;;
16093;SDS011;8151;47.824;12.092;2024-02-04T13:01:53;3.40;;;1.37;;
16093;SDS011;8151;47.824;12.092;2024-02-04T13:04:22;4.77;;;1.80;;
16093;SDS011;8151;47.824;12.092;2024-02-04T13:06:51;7.03;;;1.50;;
16093;SDS011;8151;47.824;12.092;2024-02-04T13:09:20;7.07;;;1.77;;
16093;SDS011;8151;47.824;12.092;2024-02-04T13:11:51;2.80;;;1.77;;
16093;SDS011;8151;47.824;12.092;2024-02-04T13:14:19;3.03;;;1.77;;
16093;SDS011;8151;47.824;12.092;2024-02-04T13:16:49;5.43;;;1.73;;
16093;SDS011;8151;47.824;12.092;2024-02-04T13:19:17;4.80;;;1.60;;
16093;SDS011;8151;47.824;12.092;2024-02-04T13:21:46;6.03;;;1.53;;
16093;SDS011;8151;47.824;12.092;2024-02-04T13:24:15;5.13;;;2.10;;
16093;SDS011;8151;47.824;12.092;2024-02-04T13:26:43;4.13;;;2.00;;
16093;SDS011;8151;47.824;12.092;2024-02-04T13:29:13;2.90;;;1.73;;
16093;SDS011;8151;47.824;12.092;2024-02-04T13:31:42;11.17;;;3.37;;
16093;SDS011;8151;47.824;12.092;2024-02-04T13:34:10;7.27;;;2.40;;
16093;SDS011;8151;47.824;12.092;2024-02-04T13:36:39;4.00;;;2.27;;
16093;SDS011;8151;47.824;12.092;2024-02-04T13:39:07;6.80;;;2.20;;
16093;SDS011;8151;47.824;12.092;2024-02-04T13:41:36;6.20;;;1.83;;
16093;SDS011;8151;47.824;12.092;2024-02-04T13:44:04;7.73;;;1.83;;
16093;SDS011;8151;47.824;12.092;2024-02-04T13:46:36;5.40;;;1.50;;
16093;SDS011;8151;47.824;12.092;2024-02-04T13:49:06;5.20;;;2.30;;
16093;SDS011;8151;47.824;12.092;2024-02-04T13:51:35;2.73;;;1.83;;
16093;SDS011;8151;47.824;12.092;2024-02-04T13:54:11;9.00;;;3.33;;
16093;SDS011;8151;47.824;12.092;2024-02-04T13:56:44;4.87;;;2.27;;
16093;SDS011;8151;47.824;12.092;2024-02-04T13:59:13;2.70;;;1.60;;
16093;SDS011;8151;47.824;12.092;2024-02-04T14:01:43;2.23;;;1.30;;
16093;SDS011;8151;47.824;12.092;2024-02-04T14:04:12;2.43;;;1.83;;
16093;SDS011;8151;47.824;12.092;2024-02-04T14:06:40;4.33;;;1.60;;
16093;SDS011;8151;47.824;12.092;2024-02-04T14:09:09;3.13;;;1.40;;
16093;SDS011;8151;47.824;12.092;2024-02-04T14:11:39;4.37;;;2.30;;
16093;SDS011;8151;47.824;12.092;2024-02-04T14:14:08;6.40;;;3.93;;
16093;SDS011;8151;47.824;12.092;2024-02-04T14:16:36;4.60;;;2.80;;
16093;SDS011;8151;47.824;12.092;2024-02-04T14:19:08;4.10;;;2.00;;
16093;SDS011;8151;47.824;12.092;2024-02-04T14:21:40;2.80;;;1.30;;
16093;SDS011;8151;47.824;12.092;2024-02-04T14:24:09;2.37;;;1.30;;
16093;SDS011;8151;47.824;12.092;2024-02-04T14:26:37;2.80;;;1.20;;
16093;SDS011;8151;47.824;12.092;2024-02-04T14:29:07;5.27;;;1.20;;
16093;SDS011;8151;47.824;12.092;2024-02-04T14:31:36;5.60;;;1.20;;
16093;SDS011;8151;47.824;12.092;2024-02-04T14:34:04;3.03;;;1.10;;
16093;SDS011;8151;47.824;12.092;2024-02-04T14:36:34;4.37;;;1.27;;
16093;SDS011;8151;47.824;12.092;2024-02-04T14:39:03;2.10;;;1.40;;
16093;SDS011;8151;47.824;12.092;2024-02-04T14:41:34;1.43;;;0.97;;
16093;SDS011;8151;47.824;12.092;2024-02-04T14:44:03;1.90;;;1.23;;
16093;SDS011;8151;47.824;12.092;2024-02-04T14:46:31;3.67;;;1.30;;
16093;SDS011;8151;47.824;12.092;2024-02-04T14:49:00;3.03;;;1.00;;
16093;SDS011;8151;47.824;12.092;2024-02-04T14:51:28;4.60;;;1.20;;
16093;SDS011;8151;47.824;12.092;2024-02-04T14:53:59;2.30;;;1.10;;
16093;SDS011;8151;47.824;12.092;2024-02-04T14:56:27;3.63;;;1.43;;
16093;SDS011;8151;47.824;12.092;2024-02-04T14:58:56;2.53;;;0.80;;
16093;SDS011;8151;47.824;12.092;2024-02-04T15:01:24;2.67;;;0.77;;